M05 weather

Caruthersville Memorial Airport
Caruthersville, Missouri, United States

Public forecast

Using degrees Fahrenheit for public forecast. Weather courtesy of forecast.io.

METAR (pilot weather report)

Closest report is Blytheville Municipal Airport, 15.6 nm (29.0 km) SSW. Retrieved 2019/05/19 15:53 UTC (19 minutes ago):

KHKA 191553Z AUTO 22014G25KT 10SM OVC021 23/19 A2984 RMK AO2 SLP101 T02280189 $

TAF (pilot weather forecast)

Closest forecast is McKellar-Sipes Regional Airport, 50.4 nm (93.3 km) SE. Retrieved 2019/05/19 12:42 UTC (4 hours ago):

TAF KMKL 191141Z 1912/2012 17008KT P6SM VCSH BKN040 OVC100 TEMPO 1912/1916 6SM -SHRA BKN015 FM191600 21012G22KT P6SM BKN025 FM192200 25012G22KT P6SM VCTS BKN040CB FM200300 VRB04KT P6SM FEW030 SCT250